Time;durP1;ratioP1;P1;durP2;ratioP2;P2;SDS_P1;SDS_P2;PMS_P1;PMS_P2;Temp;Humidity;BMP_temperature;BMP_pressure;BME280_temperature;BME280_humidity;BME280_pressure;Samples;Min_cycle;Max_cycle;Signal;HPM_P1;HPM_P2
2022/05/05 00:01:40;;;;;;;8.32;2.20;;;;;;;9.32;100.00;101588.75;4877416;29;20089;-80
2022/05/05 00:04:06;;;;;;;13.32;2.22;;;;;;;9.31;100.00;101589.75;4892667;29;20076;-80
2022/05/05 00:06:31;;;;;;;10.50;2.17;;;;;;;9.27;100.00;101599.19;4879118;29;20044;-80
2022/05/05 00:08:56;;;;;;;5.85;2.00;;;;;;;9.20;100.00;101592.78;4862142;29;20033;-80
2022/05/05 00:14:24;;;;;;;10.32;2.17;;;;;;;9.14;100.00;101588.13;4890608;29;20097;-80
2022/05/05 00:17:00;;;;;;;6.78;2.35;;;;;;;9.01;100.00;101575.22;4878697;29;20108;-80
2022/05/05 00:19:28;;;;;;;9.68;2.03;;;;;;;9.00;100.00;101580.75;4879005;29;20033;-79
2022/05/05 00:21:59;;;;;;;6.63;2.10;;;;;;;8.96;100.00;101585.63;4878143;29;20021;-79
2022/05/05 00:24:25;;;;;;;9.27;2.20;;;;;;;8.93;100.00;101589.47;4877946;29;20021;-80
2022/05/05 00:26:51;;;;;;;9.23;1.90;;;;;;;8.86;100.00;101591.16;4879455;29;20037;-80
2022/05/05 00:29:16;;;;;;;8.70;2.20;;;;;;;8.80;100.00;101586.47;4878421;29;20116;-80
2022/05/05 00:31:45;;;;;;;9.40;1.98;;;;;;;8.76;100.00;101595.84;4877512;29;20052;-80
2022/05/05 00:34:11;;;;;;;10.43;2.55;;;;;;;8.68;100.00;101588.66;4878649;29;20093;-80
2022/05/05 00:36:37;;;;;;;5.70;1.88;;;;;;;8.64;100.00;101598.06;4876718;29;20057;-80
2022/05/05 00:39:03;;;;;;;7.65;2.25;;;;;;;8.54;100.00;101583.94;4879955;29;20069;-80
2022/05/05 00:41:37;;;;;;;8.85;2.72;;;;;;;8.53;100.00;101594.84;4877617;29;20037;-79
2022/05/05 00:44:04;;;;;;;7.63;2.40;;;;;;;8.30;100.00;101563.28;4878556;29;20124;-80
2022/05/05 00:46:30;;;;;;;7.65;2.15;;;;;;;8.47;100.00;101586.44;4861243;29;20048;-80
2022/05/05 00:48:56;;;;;;;11.45;2.17;;;;;;;8.53;100.00;101594.84;4873620;29;20033;-80
2022/05/05 00:51:21;;;;;;;8.38;2.25;;;;;;;8.49;100.00;101609.59;4867071;29;20036;-80
2022/05/05 00:53:47;;;;;;;10.43;2.67;;;;;;;8.47;100.00;101601.69;4882082;29;20048;-80
2022/05/05 00:56:14;;;;;;;6.22;2.05;;;;;;;8.43;100.00;101597.69;4884298;29;20119;-80
2022/05/05 00:58:43;;;;;;;12.68;2.20;;;;;;;8.33;100.00;101584.38;4886966;29;20025;-79
2022/05/05 01:01:08;;;;;;;8.52;1.88;;;;;;;8.41;100.00;101602.34;4888272;29;20025;-80
2022/05/05 01:03:37;;;;;;;7.43;2.05;;;;;;;8.39;100.00;101602.53;4882760;29;20036;-80
2022/05/05 01:06:05;;;;;;;10.48;2.13;;;;;;;8.22;100.00;101574.00;4881934;29;20459;-80
2022/05/05 01:08:32;;;;;;;7.93;1.60;;;;;;;8.26;100.00;101586.06;4881883;29;20045;-80
2022/05/05 01:10:58;;;;;;;8.23;2.17;;;;;;;8.24;100.00;101585.38;4885234;29;20427;-80
2022/05/05 01:13:25;;;;;;;6.65;2.03;;;;;;;8.26;100.00;101594.09;4882676;29;20105;-79
2022/05/05 01:15:53;;;;;;;8.00;2.00;;;;;;;8.30;100.00;101602.66;4882571;29;20055;-79
2022/05/05 01:18:18;;;;;;;10.18;2.22;;;;;;;8.10;100.00;101573.44;4881438;29;20053;-79
2022/05/05 01:20:47;;;;;;;10.68;2.50;;;;;;;8.34;100.00;101607.50;4881852;29;20116;-79
2022/05/05 01:23:13;;;;;;;9.10;2.10;;;;;;;8.37;100.00;101604.50;4879046;29;20037;-80
2022/05/05 01:28:24;;;;;;;9.80;2.35;;;;;;;8.39;100.00;101610.59;4880604;29;20048;-80
2022/05/05 01:30:50;;;;;;;7.03;2.05;;;;;;;8.43;100.00;101611.09;4881841;29;20035;-79
2022/05/05 01:33:15;;;;;;;10.18;2.15;;;;;;;8.46;100.00;101614.28;4880743;29;20033;-79
2022/05/05 01:35:42;;;;;;;9.80;2.00;;;;;;;8.41;100.00;101597.84;4880954;29;20064;-80
2022/05/05 01:38:10;;;;;;;9.35;1.90;;;;;;;8.47;100.00;101607.06;4881564;29;20423;-80
2022/05/05 01:40:36;;;;;;;7.85;1.88;;;;;;;8.47;100.00;101607.91;4882256;29;20025;-79
2022/05/05 01:43:09;;;;;;;8.48;1.88;;;;;;;8.44;100.00;101612.75;4865692;29;20154;-79
2022/05/05 01:45:35;;;;;;;7.15;2.30;;;;;;;8.42;100.00;101604.91;4883942;29;20048;-79
2022/05/05 01:48:01;;;;;;;4.85;1.65;;;;;;;8.38;100.00;101608.91;4886504;29;20037;-79
2022/05/05 01:50:28;;;;;;;8.00;1.92;;;;;;;8.40;100.00;101606.06;4887484;29;20048;-79
2022/05/05 01:52:53;;;;;;;11.07;2.20;;;;;;;8.14;100.00;101564.06;4881536;29;20131;-80
2022/05/05 01:55:21;;;;;;;6.68;2.00;;;;;;;8.10;100.00;101568.09;4881371;29;20043;-79
2022/05/05 01:57:46;;;;;;;8.65;2.10;;;;;;;8.31;100.00;101607.88;4881071;29;20032;-79
2022/05/05 02:00:12;;;;;;;11.52;2.20;;;;;;;8.28;100.00;101602.84;4879346;29;20048;-79
2022/05/05 02:02:37;;;;;;;10.07;1.98;;;;;;;8.31;100.00;101605.19;4880376;29;20045;-80
2022/05/05 02:05:03;;;;;;;9.80;2.08;;;;;;;8.31;100.00;101602.50;4889154;29;20115;-79
2022/05/05 02:07:29;;;;;;;6.05;1.90;;;;;;;8.25;100.00;101597.78;4900452;29;20097;-80
2022/05/05 02:09:54;;;;;;;11.10;2.20;;;;;;;8.23;100.00;101602.47;4859057;29;20028;-79
2022/05/05 02:12:19;;;;;;;15.38;2.58;;;;;;;8.21;100.00;101596.44;4864985;29;20041;-80
2022/05/05 02:14:45;;;;;;;10.35;2.08;;;;;;;8.16;100.00;101598.78;4895492;29;20131;-79
2022/05/05 02:17:10;;;;;;;8.80;2.10;;;;;;;8.11;100.00;101596.59;4864701;29;20060;-80
2022/05/05 02:19:36;;;;;;;7.55;2.10;;;;;;;8.07;100.00;101602.44;4865095;29;20028;-79
2022/05/05 02:22:02;;;;;;;10.98;1.90;;;;;;;8.05;100.00;101604.44;4879514;29;20067;-80
2022/05/05 02:24:27;;;;;;;11.27;2.10;;;;;;;7.98;100.00;101610.47;4880140;29;20052;-80
2022/05/05 02:26:53;;;;;;;6.80;2.15;;;;;;;7.98;100.00;101602.41;4881041;29;20034;-80
2022/05/05 02:29:18;;;;;;;10.65;2.13;;;;;;;7.97;100.00;101597.19;4864613;29;20048;-80
2022/05/05 02:31:43;;;;;;;11.57;2.03;;;;;;;7.94;100.00;101602.88;4900457;29;20036;-79
2022/05/05 02:34:09;;;;;;;7.72;1.98;;;;;;;7.80;100.00;101576.72;4898966;29;20032;-80
2022/05/05 02:39:19;;;;;;;13.02;2.30;;;;;;;7.75;100.00;101595.97;4876429;29;20423;-79
2022/05/05 02:41:46;;;;;;;11.80;2.60;;;;;;;7.80;100.00;101601.66;4881581;29;20064;-80
2022/05/05 02:44:11;;;;;;;7.15;1.92;;;;;;;7.80;100.00;101592.78;4880942;29;20072;-80
2022/05/05 02:46:40;;;;;;;7.10;2.00;;;;;;;7.72;100.00;101585.56;4865582;29;20387;-79
2022/05/05 02:49:07;;;;;;;8.38;2.17;;;;;;;7.86;100.00;101600.19;4862207;29;20105;-79
2022/05/05 02:51:32;;;;;;;7.82;2.13;;;;;;;7.89;100.00;101597.19;4865107;29;20033;-79
2022/05/05 02:56:41;;;;;;;10.93;2.45;;;;;;;7.86;100.00;101579.59;4862682;29;20065;-79
2022/05/05 02:59:08;;;;;;;8.63;2.40;;;;;;;8.01;100.00;101598.53;4865615;29;20026;-80
2022/05/05 03:01:34;;;;;;;8.82;2.55;;;;;;;8.00;100.00;101603.06;4848466;29;20033;-80
2022/05/05 03:03:59;;;;;;;10.23;2.42;;;;;;;8.00;100.00;101596.88;4846349;29;20055;-81
2022/05/05 03:06:24;;;;;;;9.43;2.13;;;;;;;8.03;100.00;101599.25;4847379;29;20121;-80
2022/05/05 03:08:50;;;;;;;7.40;2.40;;;;;;;8.03;100.00;101599.25;4867300;29;20061;-80
2022/05/05 03:11:15;;;;;;;10.85;2.25;;;;;;;8.06;100.00;101600.75;4844593;29;20043;-80
2022/05/05 03:13:40;;;;;;;12.30;2.33;;;;;;;8.11;100.00;101601.09;4861347;29;20500;-79
2022/05/05 03:16:06;;;;;;;8.10;2.33;;;;;;;8.16;100.00;101598.78;4872542;29;20043;-80
2022/05/05 03:18:31;;;;;;;11.77;2.50;;;;;;;8.22;100.00;101603.50;4866204;29;20115;-80
2022/05/05 03:20:56;;;;;;;9.50;2.78;;;;;;;8.24;100.00;101596.97;4860260;29;20043;-80
2022/05/05 03:23:22;;;;;;;10.18;2.70;;;;;;;8.34;100.00;101599.47;4851961;29;20037;-80
2022/05/05 03:25:47;;;;;;;10.07;2.53;;;;;;;8.40;100.00;101589.97;4844819;29;20379;-80
2022/05/05 03:28:13;;;;;;;11.63;2.30;;;;;;;8.45;100.00;101599.19;4861566;29;20117;-80
2022/05/05 03:30:40;;;;;;;8.43;2.67;;;;;;;8.50;100.00;101597.84;4843937;29;20041;-79
2022/05/05 03:33:06;;;;;;;12.43;2.67;;;;;;;8.55;100.00;101592.84;4852522;29;20041;-80
2022/05/05 03:35:32;;;;;;;9.88;2.70;;;;;;;8.59;100.00;101591.50;4865062;29;20061;-79
2022/05/05 03:37:57;;;;;;;14.07;2.60;;;;;;;8.64;100.00;101595.38;4877015;29;20045;-79
2022/05/05 03:40:22;;;;;;;8.77;2.30;;;;;;;8.70;100.00;101591.16;4880602;29;20032;-79
2022/05/05 03:42:48;;;;;;;21.48;2.83;;;;;;;8.75;100.00;101591.50;4878060;29;20041;-80
2022/05/05 03:45:13;;;;;;;12.90;2.90;;;;;;;8.79;100.00;101595.53;4892926;29;20029;-80
2022/05/05 03:47:40;;;;;;;12.15;2.58;;;;;;;8.85;100.00;101600.22;4879814;29;20048;-79
2022/05/05 03:50:07;;;;;;;9.27;2.38;;;;;;;8.87;100.00;101595.53;4877959;29;20037;-80
2022/05/05 03:52:33;;;;;;;11.77;2.47;;;;;;;8.99;100.00;101605.91;4878580;29;20367;-80
2022/05/05 03:54:58;;;;;;;9.00;2.90;;;;;;;9.02;100.00;101601.03;4877871;29;20036;-80
2022/05/05 03:57:24;;;;;;;11.88;2.97;;;;;;;9.03;100.00;101602.72;4859137;29;20412;-79
2022/05/05 03:59:49;;;;;;;14.68;3.00;;;;;;;9.07;100.00;101608.59;4860577;29;20166;-80
2022/05/05 04:02:14;;;;;;;12.52;3.30;;;;;;;9.12;100.00;101606.25;4875028;29;20037;-80
2022/05/05 04:04:40;;;;;;;12.90;3.40;;;;;;;9.16;100.00;101605.72;4879934;29;20040;-80
2022/05/05 04:07:05;;;;;;;11.68;3.40;;;;;;;9.20;100.00;101598.16;4879635;29;20045;-79
2022/05/05 04:09:31;;;;;;;14.85;3.35;;;;;;;9.25;100.00;101601.19;4881625;29;20051;-79
2022/05/05 04:11:56;;;;;;;15.75;3.60;;;;;;;9.28;100.00;101598.16;4881372;29;20450;-80
2022/05/05 04:14:22;;;;;;;19.48;3.72;;;;;;;9.32;100.00;101598.66;4879129;29;20072;-80
2022/05/05 04:16:48;;;;;;;11.50;3.38;;;;;;;9.28;100.00;101590.09;4878496;29;20089;-79
2022/05/05 04:19:14;;;;;;;11.07;3.58;;;;;;;9.44;100.00;101601.78;4880200;29;20025;-79
2022/05/05 04:21:39;;;;;;;9.63;3.50;;;;;;;9.44;100.00;101585.69;4879568;29;20399;-79
2022/05/05 04:24:05;;;;;;;10.02;3.28;;;;;;;9.62;100.00;101599.75;4883406;29;20037;-79
2022/05/05 04:26:30;;;;;;;13.45;3.30;;;;;;;9.68;100.00;101596.38;4881026;29;20032;-80
2022/05/05 04:28:57;;;;;;;12.60;3.40;;;;;;;9.75;100.00;101589.28;4878376;29;20045;-79
2022/05/05 04:31:23;;;;;;;11.13;3.70;;;;;;;9.82;100.00;101601.00;4873896;29;20495;-80
2022/05/05 04:33:49;;;;;;;11.43;3.50;;;;;;;9.91;100.00;101607.19;4860067;29;20577;-80
2022/05/05 04:36:14;;;;;;;10.80;3.55;;;;;;;10.03;100.00;101599.56;4864387;29;20060;-80
2022/05/05 04:38:40;;;;;;;14.05;3.90;;;;;;;10.16;100.00;101596.28;4873592;29;20443;-80
2022/05/05 04:41:06;;;;;;;13.98;4.03;;;;;;;10.31;100.00;101599.94;4872974;29;20048;-80
2022/05/05 04:43:31;;;;;;;11.80;3.40;;;;;;;10.42;100.00;101601.38;4873440;29;20064;-80
2022/05/05 04:45:57;;;;;;;13.20;3.38;;;;;;;10.47;100.00;101580.16;4874087;29;20099;-81
2022/05/05 04:48:23;;;;;;;13.52;3.63;;;;;;;10.73;100.00;101593.25;4879704;29;20033;-80
2022/05/05 04:50:48;;;;;;;13.73;3.95;;;;;;;10.64;100.00;101600.56;4877542;29;20116;-79
2022/05/05 04:53:13;;;;;;;12.32;3.58;;;;;;;10.66;100.00;101594.97;4877795;29;20135;-79
2022/05/05 04:55:40;;;;;;;11.50;3.22;;;;;;;10.70;100.00;101602.53;4878879;29;20045;-79
2022/05/05 04:58:05;;;;;;;9.75;3.38;;;;;;;10.68;100.00;101592.94;4879008;29;20033;-80
2022/05/05 05:00:31;;;;;;;13.30;3.72;;;;;;;10.67;100.00;101602.88;4878568;29;20033;-79
2022/05/05 05:02:57;;;;;;;13.18;3.60;;;;;;;10.67;100.00;101608.28;4862549;29;20029;-80
2022/05/05 05:05:22;;;;;;;11.60;3.40;;;;;;;10.58;100.00;101609.34;4873251;29;20185;-79
2022/05/05 05:07:49;;;;;;;12.68;3.40;;;;;;;10.53;100.00;101617.13;4873374;29;20033;-79
2022/05/05 05:10:14;;;;;;;11.90;3.30;;;;;;;10.52;100.00;101620.81;4877678;29;20367;-79
2022/05/05 05:12:40;;;;;;;11.63;3.80;;;;;;;10.48;100.00;101603.38;4877835;29;20041;-79
2022/05/05 05:15:07;;;;;;;15.75;4.13;;;;;;;10.61;100.00;101616.22;4881056;29;20025;-79
2022/05/05 05:17:33;;;;;;;13.98;3.42;;;;;;;10.63;100.00;101612.34;4879181;29;20363;-80
2022/05/05 05:19:58;;;;;;;13.15;3.92;;;;;;;10.63;100.00;101611.47;4875227;29;20122;-79
2022/05/05 05:22:24;;;;;;;11.90;3.63;;;;;;;10.71;100.00;101616.81;4877778;29;20033;-79
2022/05/05 05:24:49;;;;;;;12.88;3.33;;;;;;;10.72;100.00;101622.00;4856826;29;20025;-82
2022/05/05 05:27:15;;;;;;;13.38;3.63;;;;;;;10.68;100.00;101615.31;4872823;29;20364;-79
2022/05/05 05:29:40;;;;;;;10.73;3.90;;;;;;;10.82;100.00;101621.75;4891157;29;20371;-79
2022/05/05 05:32:06;;;;;;;14.75;3.90;;;;;;;10.84;100.00;101618.91;4876514;29;20443;-79
2022/05/05 05:34:32;;;;;;;12.57;3.75;;;;;;;10.92;100.00;101630.44;4878512;29;20077;-80
2022/05/05 05:36:57;;;;;;;12.38;3.95;;;;;;;10.99;100.00;101631.41;4879523;29;20357;-80
2022/05/05 05:39:22;;;;;;;11.43;3.67;;;;;;;11.04;100.00;101628.16;4881964;29;20474;-79
2022/05/05 05:41:48;;;;;;;8.98;3.15;;;;;;;11.08;100.00;101625.94;4881421;29;20037;-79
2022/05/05 05:44:13;;;;;;;13.63;3.83;;;;;;;11.11;100.00;101625.56;4885646;29;20488;-80
2022/05/05 05:46:39;;;;;;;11.80;3.50;;;;;;;11.12;100.00;101622.69;4877027;29;20080;-79
2022/05/05 05:49:09;;;;;;;8.90;3.78;;;;;;;11.09;100.00;101616.81;4876156;29;20146;-79
2022/05/05 05:51:35;;;;;;;14.70;3.80;;;;;;;11.19;100.00;101630.88;4873531;29;20022;-79
2022/05/05 05:54:00;;;;;;;13.35;4.10;;;;;;;11.23;100.00;101627.66;4875638;29;20375;-79
2022/05/05 05:56:27;;;;;;;10.85;3.92;;;;;;;11.15;100.00;101643.03;4877702;29;20036;-79
2022/05/05 05:58:53;;;;;;;11.93;4.15;;;;;;;11.04;100.00;101622.78;4878718;29;20134;-79
2022/05/05 06:01:18;;;;;;;10.27;3.88;;;;;;;11.09;100.00;101639.19;4878820;29;20450;-80
2022/05/05 06:03:56;;;;;;;10.60;4.13;;;;;;;11.04;100.00;101641.63;4881106;29;20424;-80
2022/05/05 06:06:25;;;;;;;7.88;3.30;;;;;;;10.99;100.00;101635.94;4880100;29;20033;-79
2022/05/05 06:08:51;;;;;;;13.15;3.70;;;;;;;11.06;100.00;101634.22;4880284;29;20041;-80
2022/05/05 06:11:18;;;;;;;10.30;3.65;;;;;;;11.16;100.00;101628.53;4880806;29;20443;-79
2022/05/05 06:13:43;;;;;;;9.98;3.50;;;;;;;11.28;100.00;101633.31;4878028;29;20139;-80
2022/05/05 06:16:10;;;;;;;13.38;4.15;;;;;;;11.43;100.00;101629.81;4878019;29;20115;-79
2022/05/05 06:18:39;;;;;;;13.93;3.55;;;;;;;11.68;100.00;101635.75;4875369;29;20687;-80
2022/05/05 06:21:05;;;;;;;15.05;4.32;;;;;;;12.06;100.00;101639.22;4871376;29;20517;-79
2022/05/05 06:23:31;;;;;;;10.75;3.70;;;;;;;12.01;100.00;101606.56;4876452;29;20061;-80
2022/05/05 06:25:56;;;;;;;10.20;3.70;;;;;;;12.20;100.00;101638.34;4875061;29;20419;-80
2022/05/05 06:28:21;;;;;;;9.73;4.00;;;;;;;12.44;100.00;101647.94;4883734;29;20662;-79
2022/05/05 06:30:47;;;;;;;11.98;3.80;;;;;;;12.40;100.00;101651.22;4881324;29;20120;-80
2022/05/05 06:33:12;;;;;;;11.07;3.47;;;;;;;12.34;100.00;101641.19;4878864;29;20097;-79
2022/05/05 06:35:38;;;;;;;12.65;3.70;;;;;;;12.52;100.00;101652.41;4879957;29;20061;-79
2022/05/05 06:38:03;;;;;;;7.97;3.33;;;;;;;12.50;100.00;101659.84;4878760;29;20065;-79
2022/05/05 06:40:29;;;;;;;10.13;4.15;;;;;;;12.46;100.00;101645.06;4876081;29;20025;-80
2022/05/05 06:42:54;;;;;;;11.05;3.65;;;;;;;12.44;100.00;101655.22;4875229;29;20440;-80
2022/05/05 06:45:20;;;;;;;12.40;3.90;;;;;;;12.40;100.00;101653.94;4885236;29;20040;-79
2022/05/05 06:47:45;;;;;;;10.73;3.55;;;;;;;12.34;100.00;101655.50;4888741;29;20400;-80
2022/05/05 06:50:11;;;;;;;11.48;3.83;;;;;;;12.21;100.00;101652.66;4875246;29;20041;-80
2022/05/05 06:52:36;;;;;;;12.27;3.78;;;;;;;12.26;100.00;101657.50;4874880;29;20025;-79
2022/05/05 06:55:04;;;;;;;10.95;3.63;;;;;;;12.34;100.00;101665.47;4874790;29;20029;-79
2022/05/05 06:57:30;;;;;;;12.80;4.13;;;;;;;12.39;100.00;101665.75;4877454;29;20056;-80
2022/05/05 06:59:55;;;;;;;7.68;3.60;;;;;;;12.54;100.00;101661.13;4879014;29;20460;-80
2022/05/05 07:02:22;;;;;;;11.43;4.20;;;;;;;12.67;100.00;101663.97;4876466;29;20124;-80
2022/05/05 07:05:29;;;;;;;8.27;3.50;;;;;;;12.66;100.00;101651.50;4879998;29;20040;-79
2022/05/05 07:07:37;;;;;;;8.27;3.20;;;;;;;12.72;100.00;101668.81;4863101;29;20054;-80
2022/05/05 07:12:47;;;;;;;15.07;4.15;;;;;;;12.61;100.00;101672.84;4880492;29;20074;-78
2022/05/05 07:15:14;;;;;;;8.38;3.38;;;;;;;12.58;100.00;101667.84;4879075;29;20137;-79
2022/05/05 07:17:40;;;;;;;9.95;3.28;;;;;;;12.48;100.00;101667.28;4899565;29;20036;-80
2022/05/05 07:20:06;;;;;;;15.23;3.72;;;;;;;12.59;100.00;101672.22;4892534;29;20112;-80
2022/05/05 07:22:32;;;;;;;6.70;3.42;;;;;;;12.67;100.00;101672.06;4883501;29;20064;-79
2022/05/05 07:24:57;;;;;;;12.43;3.60;;;;;;;12.70;100.00;101668.16;4882489;29;20055;-79
2022/05/05 07:27:22;;;;;;;9.65;3.85;;;;;;;12.76;100.00;101667.41;4877884;29;20119;-80
2022/05/05 07:29:48;;;;;;;7.15;3.20;;;;;;;12.81;100.00;101667.63;4874577;29;20029;-79
2022/05/05 07:32:13;;;;;;;12.65;3.88;;;;;;;12.84;100.00;101663.72;4873871;29;20150;-79
2022/05/05 07:34:39;;;;;;;6.97;3.10;;;;;;;12.89;100.00;101664.00;4884956;29;20037;-79
2022/05/05 07:37:05;;;;;;;8.18;3.30;;;;;;;12.89;100.00;101661.28;4864408;29;20049;-80
2022/05/05 07:39:31;;;;;;;13.15;4.00;;;;;;;12.95;100.00;101671.34;4855220;29;20454;-80
2022/05/05 07:41:56;;;;;;;12.82;3.72;;;;;;;12.90;100.00;101666.50;4839994;29;20077;-80
2022/05/05 07:44:22;;;;;;;8.13;3.47;;;;;;;13.14;100.00;101672.53;4859160;29;20093;-79
2022/05/05 07:46:47;;;;;;;7.13;3.72;;;;;;;13.29;100.00;101670.59;4861273;29;20034;-79
2022/05/05 07:49:13;;;;;;;9.65;4.18;;;;;;;13.38;100.00;101669.44;4843012;29;20490;-80
2022/05/05 07:51:38;;;;;;;9.23;3.42;;;;;;;13.51;100.00;101671.41;4862002;29;20037;-79
2022/05/05 07:56:51;;;;;;;7.87;4.07;;;;;;;13.39;100.00;101675.69;4846649;29;20105;-79
2022/05/05 07:59:16;;;;;;;10.10;4.03;;;;;;;13.42;100.00;101678.00;4844025;29;20384;-80
2022/05/05 08:01:42;;;;;;;12.32;4.38;;;;;;;13.41;100.00;101673.63;4846553;29;20140;-80
2022/05/05 08:04:07;;;;;;;9.30;4.03;;;;;;;13.37;100.00;101666.91;4858161;29;20037;-80
2022/05/05 08:06:32;;;;;;;14.85;4.15;;;;;;;13.43;100.00;101671.53;4842580;29;20029;-79
2022/05/05 08:08:58;;;;;;;12.10;4.50;;;;;;;13.43;100.00;101685.06;4859015;29;20037;-79
2022/05/05 08:11:23;;;;;;;12.70;4.20;;;;;;;13.40;100.00;101671.94;4862283;29;20033;-79
2022/05/05 08:13:49;;;;;;;11.30;4.05;;;;;;;13.55;100.00;101679.97;4873701;29;20376;-79
2022/05/05 08:16:16;;;;;;;9.57;4.40;;;;;;;13.74;100.00;101672.97;4862750;29;20136;-79
2022/05/05 08:18:41;;;;;;;9.93;4.47;;;;;;;13.71;100.00;101676.94;4839964;29;20518;-79
2022/05/05 08:21:10;;;;;;;10.95;4.57;;;;;;;13.73;100.00;101672.16;4869450;29;20033;-79
2022/05/05 08:23:38;;;;;;;11.90;5.03;;;;;;;13.85;100.00;101677.84;4859133;29;20030;-79
2022/05/05 08:28:47;;;;;;;13.40;5.53;;;;;;;13.72;100.00;101683.19;4855918;29;20068;-79
2022/05/05 08:31:14;;;;;;;10.60;4.35;;;;;;;13.79;100.00;101682.19;4868091;29;20061;-79
2022/05/05 08:33:39;;;;;;;9.77;4.22;;;;;;;13.93;100.00;101680.38;4844385;29;20117;-79
2022/05/05 08:36:06;;;;;;;8.63;4.03;;;;;;;14.01;100.00;101674.81;4863004;29;20065;-80
2022/05/05 08:38:33;;;;;;;11.38;4.68;;;;;;;14.06;100.00;101677.75;4876630;29;20057;-80
2022/05/05 08:40:59;;;;;;;9.00;4.68;;;;;;;14.20;100.00;101688.63;4873158;29;20040;-79
2022/05/05 08:43:25;;;;;;;11.88;4.22;;;;;;;14.15;100.00;101661.34;4892271;29;20041;-79
2022/05/05 08:45:53;;;;;;;11.95;4.63;;;;;;;14.07;100.00;101663.19;4873786;29;20432;-79
2022/05/05 08:48:19;;;;;;;11.88;4.68;;;;;;;14.15;100.00;101685.72;4874947;29;20033;-80
2022/05/05 08:50:51;;;;;;;16.27;4.53;;;;;;;14.24;100.00;101693.47;4874802;29;20029;-80
2022/05/05 08:53:19;;;;;;;14.38;5.22;;;;;;;14.32;100.00;101687.03;4886047;29;20044;-80
2022/05/05 08:55:45;;;;;;;13.38;5.30;;;;;;;14.25;100.00;101692.41;4874734;29;20440;-80
2022/05/05 08:58:10;;;;;;;11.70;5.00;;;;;;;14.32;100.00;101695.16;4889226;29;20045;-79
2022/05/05 09:00:36;;;;;;;8.63;4.07;;;;;;;14.44;100.00;101696.25;4860842;29;20025;-80
2022/05/05 09:03:04;;;;;;;13.43;4.82;;;;;;;14.74;100.00;101695.97;4873617;29;20104;-80
2022/05/05 09:05:42;;;;;;;12.13;4.43;;;;;;;14.80;100.00;101698.69;4897034;29;20029;-80
2022/05/05 09:08:25;;;;;;;9.77;4.80;;;;;;;14.29;100.00;101682.03;4887043;29;20029;-80
2022/05/05 09:10:51;;;;;;;12.43;5.32;;;;;;;14.06;100.00;101699.41;4881809;29;20047;-80
2022/05/05 09:13:25;;;;;;;10.38;5.40;;;;;;;13.85;100.00;101707.63;4883327;29;20427;-81
2022/05/05 09:15:51;;;;;;;;;;;;;;;13.79;100.00;101708.41;4884804;29;20077;-80
2022/05/05 09:18:17;;;;;;;14.88;5.05;;;;;;;13.72;100.00;101711.06;4888330;29;19916;-80
2022/05/05 09:20:44;;;;;;;6.70;4.65;;;;;;;13.65;100.00;101707.50;4883789;29;20032;-80
2022/05/05 09:23:25;;;;;;;12.48;5.15;;;;;;;13.58;100.00;101703.91;4876149;29;20037;-81
2022/05/05 09:25:51;;;;;;;11.15;5.28;;;;;;;13.46;100.00;101711.69;4875830;29;20111;-80
2022/05/05 09:28:17;;;;;;;10.98;4.85;;;;;;;13.47;100.00;101705.25;4891231;29;20442;-80
2022/05/05 09:30:50;;;;;;;14.50;5.63;;;;;;;13.39;100.00;101708.13;4896055;29;20043;-80
2022/05/05 09:33:37;;;;;;;11.27;5.47;;;;;;;13.33;100.00;101722.41;4882677;29;20064;-79
2022/05/05 09:36:11;;;;;;;10.65;5.25;;;;;;;13.33;100.00;101709.72;4877903;29;20056;-79
2022/05/05 09:38:54;;;;;;;11.48;5.63;;;;;;;13.26;100.00;101711.53;4882233;29;20028;-80
2022/05/05 09:41:24;;;;;;;12.15;6.35;;;;;;;12.93;100.00;101695.00;4897646;29;20037;-79
2022/05/05 09:43:53;;;;;;;14.63;6.07;;;;;;;13.02;100.00;101723.56;4883359;29;20494;-79
2022/05/05 09:46:21;;;;;;;11.32;6.18;;;;;;;12.97;100.00;101720.59;4880813;29;20043;-79
2022/05/05 09:48:46;;;;;;;14.02;7.38;;;;;;;12.88;100.00;101721.72;4880893;29;20033;-79
2022/05/05 09:51:13;;;;;;;13.80;7.05;;;;;;;12.84;100.00;101723.16;4898897;29;20132;-79
2022/05/05 09:59:14;;;;;;;11.23;6.93;;;;;;;12.65;100.00;101709.25;4899478;29;20039;-79
2022/05/05 10:01:41;;;;;;;17.80;7.53;;;;;;;12.67;100.00;101707.19;4881342;29;20276;-79
2022/05/05 10:04:09;;;;;;;14.73;7.03;;;;;;;12.83;100.00;101713.38;4880821;29;20033;-79
2022/05/05 10:06:40;;;;;;;11.45;7.32;;;;;;;12.84;100.00;101720.44;4878935;29;20071;-79
2022/05/05 10:09:13;;;;;;;13.05;7.53;;;;;;;12.82;100.00;101722.53;4881861;29;20037;-80
2022/05/05 10:11:40;;;;;;;13.02;7.93;;;;;;;12.85;100.00;101714.03;4881405;29;20044;-78
2022/05/05 10:14:07;;;;;;;15.13;8.07;;;;;;;12.82;100.00;101717.13;4880198;29;20096;-79
2022/05/05 10:16:32;;;;;;;15.65;8.27;;;;;;;12.79;100.00;101707.53;4881004;29;20453;-80
2022/05/05 10:18:59;;;;;;;12.98;7.63;;;;;;;12.83;100.00;101725.00;4880107;29;20037;-79
2022/05/05 10:22:02;;;;;;;15.60;7.97;;;;;;;12.89;100.00;101729.66;4878818;29;20355;-79
2022/05/05 10:24:29;;;;;;;11.50;7.50;;;;;;;12.93;100.00;101730.09;4881498;29;20032;-79
2022/05/05 10:27:00;;;;;;;15.07;7.82;;;;;;;12.86;100.00;101702.19;4886462;29;20048;-79
2022/05/05 10:29:42;;;;;;;13.75;8.13;;;;;;;13.14;100.00;101716.63;4879163;29;20358;-79
2022/05/05 10:32:21;;;;;;;16.15;8.05;;;;;;;13.31;100.00;101716.34;4881104;29;20463;-79
2022/05/05 10:34:53;;;;;;;13.65;7.05;;;;;;;13.55;100.00;101715.94;4880327;29;20093;-79
2022/05/05 10:37:22;;;;;;;12.80;7.90;;;;;;;13.56;100.00;101711.38;4879705;29;20075;-79
2022/05/05 10:40:06;;;;;;;13.65;8.15;;;;;;;13.69;100.00;101707.91;4879197;29;20139;-79
2022/05/05 10:42:44;;;;;;;13.55;8.23;;;;;;;13.82;100.00;101718.84;4880540;29;20040;-79
2022/05/05 10:45:13;;;;;;;12.85;8.13;;;;;;;13.74;100.00;101713.56;4876993;29;20029;-79
2022/05/05 10:48:04;;;;;;;16.30;8.70;;;;;;;13.64;100.00;101722.03;4879885;29;20099;-79
2022/05/05 10:50:43;;;;;;;13.85;8.68;;;;;;;13.78;100.00;101717.56;4876641;29;20045;-79
2022/05/05 10:53:24;;;;;;;14.75;9.02;;;;;;;13.71;100.00;101716.66;4879222;29;20032;-79
2022/05/05 10:55:49;;;;;;;16.77;9.35;;;;;;;13.72;100.00;101721.88;4879419;29;20044;-79
2022/05/05 10:58:52;;;;;;;11.63;8.25;;;;;;;13.66;100.00;101709.16;4881111;29;20108;-79
2022/05/05 11:01:18;;;;;;;11.85;8.80;;;;;;;13.54;100.00;101692.66;4895754;29;20107;-79
2022/05/05 11:04:06;;;;;;;14.32;8.50;;;;;;;13.79;100.00;101724.63;4879531;29;21201;-79
2022/05/05 11:06:33;;;;;;;16.55;7.88;;;;;;;13.75;100.00;101712.53;4895600;29;20169;-79
2022/05/05 11:08:59;;;;;;;15.68;7.82;;;;;;;13.90;100.00;101728.66;4878951;29;20041;-79
2022/05/05 11:11:43;;;;;;;15.32;7.80;;;;;;;13.72;100.00;101708.38;4894145;29;20037;-79
2022/05/05 11:23:05;;;;;;;13.05;8.45;;;;;;;13.90;100.00;101720.53;4878077;29;20191;-79
2022/05/05 11:25:32;;;;;;;15.55;9.02;;;;;;;13.90;100.00;101712.41;4878628;29;20112;-79
2022/05/05 11:27:58;;;;;;;14.57;10.05;;;;;;;13.79;100.00;101720.06;4873267;29;20044;-79
2022/05/05 11:30:24;;;;;;;21.80;11.15;;;;;;;13.85;100.00;101704.91;4860423;29;20030;-79
2022/05/05 11:32:50;;;;;;;15.30;11.05;;;;;;;13.83;100.00;101706.97;4862059;29;20115;-80
2022/05/05 11:35:24;;;;;;;21.00;11.70;;;;;;;13.82;100.00;101716.13;4879828;29;20502;-79
2022/05/05 11:37:50;;;;;;;18.17;12.15;;;;;;;13.82;100.00;101710.72;4886121;29;20033;-78
2022/05/05 11:40:15;;;;;;;24.63;13.02;;;;;;;13.74;100.00;101713.56;4878469;29;20025;-79
2022/05/05 11:45:31;;;;;;;19.45;12.70;;;;;;;13.61;100.00;101706.22;4879900;29;20459;-79
2022/05/05 11:47:58;;;;;;;20.02;12.90;;;;;;;13.59;100.00;101714.50;4880840;29;20125;-79
2022/05/05 11:50:23;;;;;;;20.88;12.52;;;;;;;13.63;100.00;101718.47;4895531;29;20064;-79
2022/05/05 11:52:49;;;;;;;22.75;12.50;;;;;;;13.79;100.00;101724.63;4877265;29;20459;-80